Time;durP1;ratioP1;P1;durP2;ratioP2;P2;SDS_P1;SDS_P2;PMS_P1;PMS_P2;Temp;Humidity;BMP_temperature;BMP_pressure;BME280_temperature;BME280_humidity;BME280_pressure;Samples;Min_cycle;Max_cycle;Signal;HPM_P1;HPM_P2
2023/07/10 00:05:30;;;;;;;;;4.25;3.00;;;;;24.47;48.58;101404.31;5039333;28;45603;-78
2023/07/10 00:07:55;;;;;;;;;2.00;2.00;;;;;24.48;48.14;101402.47;5040649;28;45681;-80
2023/07/10 00:10:21;;;;;;;;;2.50;2.50;;;;;24.47;47.65;101403.47;5037830;28;45550;-84
2023/07/10 00:12:46;;;;;;;;;3.00;2.75;;;;;24.47;48.01;101400.78;5037774;28;45730;-79
2023/07/10 00:15:18;;;;;;;;;3.50;3.00;;;;;24.49;48.96;101404.13;5037348;28;46123;-78
2023/07/10 00:17:45;;;;;;;;;4.00;4.00;;;;;24.45;48.90;101402.84;5038610;28;45635;-87
2023/07/10 00:20:23;;;;;;;;;4.25;3.75;;;;;24.46;49.07;101413.34;5036111;28;47615;-83
2023/07/10 00:22:49;;;;;;;;;4.00;3.50;;;;;24.43;49.40;101413.72;5038806;28;45885;-77
2023/07/10 00:25:15;;;;;;;;;4.00;4.00;;;;;24.44;49.83;101417.22;5037143;28;45492;-79
2023/07/10 00:27:42;;;;;;;;;6.50;4.75;;;;;24.43;50.16;101416.41;5037214;28;45461;-80
2023/07/10 00:30:24;;;;;;;;;4.75;4.75;;;;;24.40;49.75;101413.25;5037543;28;46703;-82
2023/07/10 00:32:52;;;;;;;;;4.00;4.00;;;;;24.36;50.38;101414.59;5038102;28;45559;-79
2023/07/10 00:35:23;;;;;;;;;4.75;3.75;;;;;24.31;50.56;101408.94;5037091;28;45760;-80
2023/07/10 00:38:01;;;;;;;;;5.00;4.25;;;;;24.30;50.56;101416.16;5035645;28;45859;-77
2023/07/10 00:40:29;;;;;;;;;4.50;4.00;;;;;24.27;50.12;101421.03;5036723;28;46370;-77
2023/07/10 00:43:06;;;;;;;;;5.00;4.00;;;;;24.24;50.30;101419.53;5036661;28;46288;-80
2023/07/10 00:45:31;;;;;;;;;5.50;3.00;;;;;24.16;50.63;101409.69;5037161;28;45691;-83
2023/07/10 00:48:19;;;;;;;;;4.25;4.00;;;;;24.16;50.87;101420.41;5037260;28;45681;-81
2023/07/10 00:50:48;;;;;;;;;4.00;4.00;;;;;24.12;50.65;101421.78;5036706;28;45633;-78
2023/07/10 00:53:24;;;;;;;;;5.25;4.00;;;;;24.08;50.74;101416.94;5037769;28;46642;-82
2023/07/10 00:55:53;;;;;;;;;6.00;5.25;;;;;24.05;50.95;101414.63;5038310;28;45720;-80
2023/07/10 00:58:37;;;;;;;;;4.00;4.00;;;;;24.01;51.47;101410.66;5037390;28;45870;-80
2023/07/10 01:01:05;;;;;;;;;4.00;4.00;;;;;23.97;51.07;101410.16;5035095;28;47484;-79
2023/07/10 01:03:31;;;;;;;;;5.25;4.75;;;;;23.93;51.65;101403.47;5036000;28;45988;-83
2023/07/10 01:06:00;;;;;;;;;4.00;4.00;;;;;23.89;51.21;101399.50;5035962;28;45737;-83
2023/07/10 01:08:27;;;;;;;;;4.00;3.00;;;;;23.87;51.46;101393.47;5036356;28;45683;-79
2023/07/10 01:10:52;;;;;;;;;3.00;3.00;;;;;23.87;51.34;101398.00;5035090;28;47415;-80
2023/07/10 01:13:18;;;;;;;;;2.50;2.50;;;;;23.87;51.46;101398.00;5036551;28;45554;-80
2023/07/10 01:15:43;;;;;;;;;4.00;4.00;;;;;23.83;51.22;101401.03;5036789;28;45682;-79
2023/07/10 01:18:11;;;;;;;;;5.25;3.50;;;;;23.81;51.16;101395.00;5036789;28;45730;-78
2023/07/10 01:20:49;;;;;;;;;3.00;2.50;;;;;23.82;51.37;101403.88;5036466;28;45518;-75
2023/07/10 01:23:16;;;;;;;;;3.75;3.75;;;;;23.79;51.69;101398.88;5036860;28;46272;-75
2023/07/10 01:25:59;;;;;;;;;3.00;3.00;;;;;23.79;51.83;101398.88;5037610;28;45747;-77
2023/07/10 01:28:26;;;;;;;;;4.00;3.25;;;;;23.75;52.09;101397.59;5037297;28;45614;-76
2023/07/10 01:30:53;;;;;;;;;4.75;4.50;;;;;23.71;51.84;101396.25;5036626;28;45815;-76
2023/07/10 01:33:24;;;;;;;;;5.00;5.00;;;;;23.66;52.07;101398.59;5036476;28;48567;-80
2023/07/10 01:35:53;;;;;;;;;5.00;4.75;;;;;23.62;51.59;101402.66;5038330;28;45733;-78
2023/07/10 01:38:18;;;;;;;;;3.25;2.50;;;;;23.59;52.05;101413.72;5038239;28;45725;-76
2023/07/10 01:40:50;;;;;;;;;3.75;2.75;;;;;23.54;52.17;101408.03;5038422;28;46311;-76
2023/07/10 01:43:16;;;;;;;;;3.00;3.00;;;;;23.49;52.24;101408.53;5037733;28;45929;-80
2023/07/10 01:45:43;;;;;;;;;3.75;3.00;;;;;23.51;51.93;101413.72;5037336;28;45762;-80
2023/07/10 01:48:10;;;;;;;;;4.50;4.00;;;;;23.45;52.28;101404.53;5038345;28;45623;-80
2023/07/10 01:50:35;;;;;;;;;3.00;3.00;;;;;23.46;52.06;101408.91;5037906;28;45488;-77
2023/07/10 01:53:01;;;;;;;;;5.25;4.25;;;;;23.46;52.72;101410.75;5037345;28;45555;-77
2023/07/10 01:55:29;;;;;;;;;4.50;4.50;;;;;23.41;52.26;101414.75;5037300;28;45810;-76
2023/07/10 01:57:55;;;;;;;;;4.00;3.50;;;;;23.38;52.18;101412.41;5036898;28;45638;-76
2023/07/10 02:00:20;;;;;;;;;5.00;4.00;;;;;23.36;52.90;101402.91;5034212;28;47657;-76
2023/07/10 02:06:08;;;;;;;;;3.75;3.50;;;;;23.28;52.17;101417.13;5037320;28;45556;-77
2023/07/10 02:08:33;;;;;;;;;4.00;4.00;;;;;23.25;52.78;101406.78;5037926;28;45630;-77
2023/07/10 02:10:59;;;;;;;;;5.00;4.25;;;;;23.25;52.91;101416.63;5037744;28;46555;-78
2023/07/10 02:13:24;;;;;;;;;5.00;4.00;;;;;23.23;53.00;101415.97;5038750;28;45926;-84
2023/07/10 02:15:51;;;;;;;;;4.00;3.25;;;;;23.18;52.91;101419.16;5037195;28;45967;-85
2023/07/10 02:18:16;;;;;;;;;4.75;4.00;;;;;23.17;53.27;101412.13;5037205;28;45530;-80
2023/07/10 02:20:42;;;;;;;;;4.00;4.00;;;;;23.11;52.87;101410.13;5036924;28;46364;-82
2023/07/10 02:23:07;;;;;;;;;4.25;4.00;;;;;23.12;52.92;101419.84;5036879;28;46002;-80
2023/07/10 02:25:33;;;;;;;;;5.75;4.00;;;;;23.09;52.62;101416.69;5035028;28;45585;-78
2023/07/10 02:27:58;;;;;;;;;6.00;5.00;;;;;23.12;53.11;101416.31;5037641;28;45700;-79
2023/07/10 02:30:24;;;;;;;;;4.25;4.25;;;;;23.10;52.92;101408.50;5037439;28;45622;-81
2023/07/10 02:36:11;;;;;;;;;7.00;4.75;;;;;23.13;53.07;101412.66;5037526;28;45671;-83
2023/07/10 02:38:36;;;;;;;;;4.25;4.25;;;;;23.15;53.50;101422.19;5037544;28;45684;-85
2023/07/10 02:41:02;;;;;;;;;7.25;4.00;;;;;23.14;52.88;101425.84;5036586;28;45658;-82
2023/07/10 02:43:27;;;;;;;;;6.25;4.25;;;;;23.16;53.14;101423.84;5035015;28;46100;-86
2023/07/10 02:45:53;;;;;;;;;5.00;4.25;;;;;23.16;52.69;101429.19;5034561;28;45733;-87
2023/07/10 02:51:40;;;;;;;;;6.25;6.25;;;;;23.19;52.84;101428.00;5034210;28;45703;-86
2023/07/10 02:54:10;;;;;;;;;6.75;6.25;;;;;23.17;52.71;101427.34;5033125;28;47237;-82
2023/07/10 02:56:35;;;;;;;;;6.00;5.50;;;;;23.17;53.22;101430.00;5034802;28;45884;-81
2023/07/10 02:59:01;;;;;;;;;8.75;8.00;;;;;23.16;53.58;101429.19;5033240;28;45550;-79
2023/07/10 03:01:26;;;;;;;;;6.50;6.00;;;;;23.15;53.32;101432.03;5034083;28;47694;-86
2023/07/10 03:03:51;;;;;;;;;7.25;6.25;;;;;23.17;53.28;101438.03;5034907;28;46183;-80
2023/07/10 03:06:17;;;;;;;;;7.00;6.00;;;;;23.18;52.86;101439.72;5036282;28;45622;-79
2023/07/10 03:08:43;;;;;;;;;10.75;10.75;;;;;23.18;53.34;101440.56;5037114;28;45531;-80
2023/07/10 03:11:12;;;;;;;;;20.00;18.75;;;;;23.16;52.91;101434.53;5038506;28;45719;-84
2023/07/10 03:13:37;;;;;;;;;14.00;11.75;;;;;23.13;53.29;101437.56;5039181;28;46042;-80
2023/07/10 03:16:06;;;;;;;;;15.25;14.50;;;;;23.11;53.12;101436.88;5041875;28;45551;-84
2023/07/10 03:21:54;;;;;;;;;17.00;14.50;;;;;23.10;53.20;101439.75;5043231;28;46036;-81
2023/07/10 03:24:20;;;;;;;;;10.00;9.25;;;;;23.09;53.56;101441.59;5043559;28;46071;-78
2023/07/10 03:26:46;;;;;;;;;10.00;9.00;;;;;23.07;53.45;101440.91;5044521;28;45487;-85
2023/07/10 03:29:13;;;;;;;;;9.00;8.00;;;;;23.03;53.32;101439.59;5044159;28;45524;-78
2023/07/10 03:31:39;;;;;;;;;9.25;8.00;;;;;23.04;53.22;101443.09;5044564;28;45459;-78
2023/07/10 03:34:04;;;;;;;;;8.00;6.25;;;;;23.01;53.30;101442.41;5041069;28;47363;-77
2023/07/10 03:36:30;;;;;;;;;6.50;6.00;;;;;23.03;53.80;101447.59;5044676;28;45536;-78
2023/07/10 03:38:56;;;;;;;;;5.25;5.25;;;;;23.00;53.71;101442.56;5043789;28;45637;-79
2023/07/10 03:41:22;;;;;;;;;6.00;5.50;;;;;23.02;53.61;101449.44;5043112;28;46619;-78
2023/07/10 03:43:48;;;;;;;;;7.50;6.25;;;;;23.00;53.39;101454.09;5042828;28;46057;-80
2023/07/10 03:46:15;;;;;;;;;5.25;4.75;;;;;22.99;53.62;101448.94;5044083;28;45697;-80
2023/07/10 03:52:04;;;;;;;;;5.00;4.75;;;;;23.04;53.57;101461.81;5040901;28;45718;-82
2023/07/10 03:54:32;;;;;;;;;4.00;4.00;;;;;23.03;53.33;101455.63;5040398;28;45554;-81
2023/07/10 03:56:57;;;;;;;;;4.25;4.25;;;;;23.03;53.80;101463.63;5037544;28;45813;-82
2023/07/10 03:59:23;;;;;;;;;3.50;3.50;;;;;22.99;53.70;101454.28;5037115;28;45817;-84
2023/07/10 04:01:48;;;;;;;;;4.00;4.00;;;;;22.93;54.55;101453.13;5035472;28;47951;-77
2023/07/10 04:04:13;;;;;;;;;5.00;5.00;;;;;22.89;54.59;101470.50;5037171;28;46077;-82
2023/07/10 04:06:41;;;;;;;;;5.00;3.00;;;;;22.80;54.13;101460.81;5035611;28;45617;-82
2023/07/10 04:09:06;;;;;;;;;5.50;5.50;;;;;22.76;54.31;101475.53;5037191;28;45492;-79
2023/07/10 04:11:32;;;;;;;;;4.00;4.00;;;;;22.72;54.67;101476.03;5035317;28;47420;-81
2023/07/10 04:13:57;;;;;;;;;4.75;4.00;;;;;22.64;54.62;101463.44;5036728;28;46129;-76
2023/07/10 04:16:25;;;;;;;;;6.00;5.00;;;;;22.60;55.07;101468.31;5037792;28;45579;-78
2023/07/10 04:22:12;;;;;;;;;4.00;4.00;;;;;22.48;55.20;101482.13;5037445;28;45574;-78
2023/07/10 04:24:38;;;;;;;;;4.00;4.00;;;;;22.43;55.32;101482.63;5036393;28;46637;-78
2023/07/10 04:27:04;;;;;;;;;5.75;5.75;;;;;22.41;54.80;101489.13;5035863;28;45705;-88
2023/07/10 04:29:29;;;;;;;;;3.00;2.50;;;;;22.38;55.15;101482.28;5037923;28;45918;-89
2023/07/10 04:31:54;;;;;;;;;4.00;3.75;;;;;22.37;54.86;101493.13;5037332;28;46419;-82
2023/07/10 04:34:21;;;;;;;;;5.00;5.00;;;;;22.37;55.41;101506.47;5039188;28;45587;-80
2023/07/10 04:36:47;;;;;;;;;4.00;3.75;;;;;22.31;55.54;101494.63;5037906;28;45471;-83
2023/07/10 04:39:12;;;;;;;;;5.00;4.00;;;;;22.32;55.07;101504.31;5038579;28;45544;-84
2023/07/10 04:41:38;;;;;;;;;3.00;3.00;;;;;22.31;55.23;101504.47;5037842;28;45704;-85
2023/07/10 04:44:03;;;;;;;;;4.50;3.50;;;;;22.29;55.45;101506.47;5037962;28;46272;-84
2023/07/10 04:46:29;;;;;;;;;4.25;3.75;;;;;22.29;55.67;101503.81;5037353;28;45544;-78
2023/07/10 04:52:16;;;;;;;;;3.00;3.00;;;;;22.24;55.29;101508.81;5036433;28;45519;-90
2023/07/10 04:54:42;;;;;;;;;4.00;3.25;;;;;22.19;55.25;101503.94;5036403;28;46306;-81
2023/07/10 04:57:07;;;;;;;;;4.25;3.25;;;;;22.13;55.51;101513.41;5036739;28;45684;-86
2023/07/10 04:59:32;;;;;;;;;3.25;3.00;;;;;22.07;55.46;101508.75;5036801;28;45672;-87
2023/07/10 05:01:57;;;;;;;;;3.00;3.00;;;;;22.06;54.95;101509.75;5034467;28;46293;-82
2023/07/10 05:07:44;;;;;;;;;3.25;3.00;;;;;21.99;55.38;101519.38;5031208;28;45987;-83
2023/07/10 05:10:10;;;;;;;;;3.75;3.00;;;;;21.95;55.09;101507.38;5036960;28;45520;-79
2023/07/10 05:12:35;;;;;;;;;3.00;3.00;;;;;21.94;55.03;101513.69;5037356;28;46247;-77
2023/07/10 05:15:01;;;;;;;;;4.25;3.25;;;;;21.96;55.06;101513.53;5037443;28;46106;-76
2023/07/10 05:17:26;;;;;;;;;3.50;2.75;;;;;21.94;55.25;101513.69;5037602;28;45399;-83
2023/07/10 05:19:51;;;;;;;;;3.25;3.25;;;;;21.93;55.43;101513.81;5041418;28;45510;-84
2023/07/10 05:22:17;;;;;;;;;2.50;1.75;;;;;21.91;55.14;101518.50;5037061;28;46564;-84
2023/07/10 05:24:42;;;;;;;;;3.50;2.75;;;;;21.84;55.69;101518.28;5037596;28;46270;-86
2023/07/10 05:27:07;;;;;;;;;2.75;2.75;;;;;21.81;55.65;101520.44;5037867;28;45511;-87
2023/07/10 05:29:33;;;;;;;;;5.00;4.00;;;;;21.77;55.26;101515.41;5037675;28;45700;-81
2023/07/10 05:31:58;;;;;;;;;3.00;3.00;;;;;21.73;55.72;101507.91;5036029;28;45566;-81
2023/07/10 05:37:45;;;;;;;;;4.50;3.50;;;;;21.80;55.70;101506.28;5035542;28;45714;-82
2023/07/10 05:40:11;;;;;;;;;5.25;4.50;;;;;21.81;55.43;101505.25;5034949;28;45448;-82
2023/07/10 05:42:38;;;;;;;;;3.25;2.00;;;;;21.83;55.38;101503.28;5034714;28;45521;-81
2023/07/10 05:45:04;;;;;;;;;3.25;3.00;;;;;21.86;55.21;101502.97;5034523;28;46093;-82
2023/07/10 05:47:29;;;;;;;;;2.75;2.75;;;;;21.90;55.31;101506.97;5034426;28;45572;-82
2023/07/10 05:49:55;;;;;;;;;6.50;4.00;;;;;21.95;55.23;101510.03;5034631;28;45739;-81
2023/07/10 05:52:20;;;;;;;;;3.25;3.25;;;;;22.00;55.21;101514.88;5032954;28;46512;-81
2023/07/10 05:54:46;;;;;;;;;3.25;2.00;;;;;22.01;54.98;101508.56;5034251;28;45757;-84
2023/07/10 05:57:11;;;;;;;;;4.50;3.25;;;;;22.09;55.34;101517.41;5034219;28;45612;-84
2023/07/10 05:59:36;;;;;;;;;3.25;2.75;;;;;22.10;54.78;101505.75;5032934;28;46094;-84
2023/07/10 06:02:02;;;;;;;;;3.00;2.50;;;;;22.16;55.09;101514.94;5034203;28;45656;-85
2023/07/10 06:07:49;;;;;;;;;4.50;2.75;;;;;22.25;55.14;101508.63;5033107;28;45942;-83
2023/07/10 06:10:14;;;;;;;;;3.75;3.25;;;;;22.29;54.55;101510.00;5032960;28;45684;-77
2023/07/10 06:12:41;;;;;;;;;3.75;3.00;;;;;22.33;54.28;101508.66;5035154;28;45760;-81
2023/07/10 06:15:07;;;;;;;;;3.50;3.50;;;;;22.35;54.57;101514.66;5035254;28;46016;-80
2023/07/10 06:17:33;;;;;;;;;4.75;3.75;;;;;22.38;54.17;101516.16;5034392;28;45539;-77
2023/07/10 06:23:21;;;;;;;;;3.75;3.75;;;;;22.43;54.14;101511.16;5033944;28;46018;-80
2023/07/10 06:25:47;;;;;;;;;5.25;3.50;;;;;22.44;54.05;101520.88;5034124;28;45805;-81
2023/07/10 06:28:13;;;;;;;;;4.00;3.25;;;;;22.43;54.07;101516.50;5032933;28;45660;-80
2023/07/10 06:30:52;;;;;;;;;3.00;3.00;;;;;22.43;54.01;101508.50;5032710;28;45903;-80
2023/07/10 06:33:17;;;;;;;;;4.75;3.75;;;;;22.39;54.76;101508.00;5033935;28;46518;-80
2023/07/10 06:35:42;;;;;;;;;3.25;3.25;;;;;22.40;54.33;101512.31;5034017;28;46095;-79
2023/07/10 06:38:08;;;;;;;;;3.25;3.25;;;;;22.43;54.64;101511.16;5034105;28;45428;-79
2023/07/10 06:40:33;;;;;;;;;4.75;4.00;;;;;22.40;54.80;101504.31;5034173;28;45437;-79
2023/07/10 06:42:58;;;;;;;;;2.00;2.00;;;;;22.39;54.30;101505.34;5034236;28;45581;-80
2023/07/10 06:45:24;;;;;;;;;5.00;3.00;;;;;22.44;54.29;101510.19;5033835;28;45589;-80
2023/07/10 06:47:49;;;;;;;;;3.50;3.50;;;;;22.44;54.95;101512.84;5033784;28;45618;-80
2023/07/10 06:53:37;;;;;;;;;4.75;3.25;;;;;22.45;54.47;101504.69;5037537;28;46028;-82
2023/07/10 06:56:03;;;;;;;;;3.75;3.25;;;;;22.47;54.59;101507.16;5038659;28;46485;-83
2023/07/10 06:58:30;;;;;;;;;4.00;4.00;;;;;22.50;54.81;101510.38;5037125;28;45626;-82
2023/07/10 07:00:55;;;;;;;;;13.25;12.50;;;;;22.52;54.60;101503.00;5037580;28;45718;-80
2023/07/10 07:03:21;;;;;;;;;3.25;3.00;;;;;22.57;54.47;101511.34;5037178;28;46189;-80
2023/07/10 07:05:47;;;;;;;;;5.75;5.75;;;;;22.60;54.21;101505.69;5037097;28;45709;-81
2023/07/10 07:08:13;;;;;;;;;4.25;4.00;;;;;22.64;54.14;101510.69;5036851;28;45606;-80
2023/07/10 07:10:42;;;;;;;;;6.75;4.75;;;;;22.66;54.13;101512.22;5035727;28;45874;-80
2023/07/10 07:13:09;;;;;;;;;4.00;3.75;;;;;22.69;54.46;101513.72;5036940;28;45574;-79
2023/07/10 07:15:34;;;;;;;;;5.25;4.00;;;;;22.73;54.66;101510.56;5036924;28;45919;-79
2023/07/10 07:18:00;;;;;;;;;4.25;4.25;;;;;22.78;54.19;101504.75;5036826;28;45465;-80
2023/07/10 07:23:47;;;;;;;;;4.00;4.00;;;;;22.87;53.93;101498.41;5036429;28;45529;-81
2023/07/10 07:26:12;;;;;;;;;3.00;2.00;;;;;22.91;54.14;101499.72;5036664;28;46544;-80
2023/07/10 07:28:38;;;;;;;;;3.00;3.00;;;;;22.95;53.61;101503.72;5036688;28;45622;-79
2023/07/10 07:31:05;;;;;;;;;5.00;3.50;;;;;23.00;53.84;101498.72;5036845;28;45523;-81
2023/07/10 07:33:31;;;;;;;;;4.50;3.00;;;;;23.04;53.98;101504.56;5036659;28;45614;-80
2023/07/10 07:36:00;;;;;;;;;3.25;2.75;;;;;23.07;52.84;101504.22;5035160;28;46597;-79
2023/07/10 07:38:25;;;;;;;;;2.25;2.00;;;;;23.07;52.93;101505.06;5036533;28;45413;-80
2023/07/10 07:40:50;;;;;;;;;4.00;3.50;;;;;23.09;53.00;101503.06;5036783;28;45770;-82
2023/07/10 07:43:16;;;;;;;;;5.50;3.50;;;;;23.14;52.60;101502.56;5036566;28;46208;-82
2023/07/10 07:45:50;;;;;;;;;2.25;2.00;;;;;23.17;52.15;101495.03;5036571;28;46157;-79
2023/07/10 07:48:16;;;;;;;;;3.25;2.50;;;;;23.20;52.49;101499.22;5036333;28;45729;-81
2023/07/10 07:50:41;;;;;;;;;2.00;2.00;;;;;23.20;52.63;101486.69;5036675;28;45709;-81
2023/07/10 07:53:06;;;;;;;;;2.00;2.00;;;;;23.23;51.60;101480.16;5036699;28;45594;-80
2023/07/10 07:55:32;;;;;;;;;4.00;3.25;;;;;23.26;51.54;101486.00;5036580;28;46423;-80
2023/07/10 07:57:57;;;;;;;;;3.00;2.75;;;;;23.27;51.26;101487.66;5036442;28;45591;-81
2023/07/10 08:00:22;;;;;;;;;2.00;1.50;;;;;23.30;50.99;101476.63;5035509;28;45698;-81
2023/07/10 08:02:49;;;;;;;;;4.00;2.50;;;;;23.38;50.98;101481.09;5036222;28;45567;-80
2023/07/10 08:08:35;;;;;;;;;0.25;0.25;;;;;23.46;51.15;101474.94;5027926;28;45797;-80
2023/07/10 08:11:01;;;;;;;;;3.00;2.00;;;;;23.52;50.21;101480.44;5036607;28;45722;-80
2023/07/10 08:13:26;;;;;;;;;2.50;1.50;;;;;23.54;49.32;101467.72;5036266;28;45441;-81
2023/07/10 08:15:52;;;;;;;;;3.00;1.00;;;;;23.60;48.79;101485.75;5036087;28;45625;-80
2023/07/10 08:18:17;;;;;;;;;2.00;1.00;;;;;23.62;48.84;101475.75;5035914;28;45825;-80
2023/07/10 08:24:04;;;;;;;;;2.00;1.25;;;;;23.69;47.98;101475.88;5035614;28;45921;-79
2023/07/10 08:26:31;;;;;;;;;1.25;1.00;;;;;23.72;47.50;101479.03;5034492;28;48075;-82
2023/07/10 08:28:56;;;;;;;;;1.25;0.75;;;;;23.77;47.72;101478.50;5035934;28;45543;-80
2023/07/10 08:31:21;;;;;;;;;1.50;1.00;;;;;23.77;47.88;101471.31;5036123;28;45527;-79
2023/07/10 08:33:47;;;;;;;;;1.25;1.00;;;;;23.86;47.64;101474.78;5035909;28;45525;-80
2023/07/10 08:36:12;;;;;;;;;1.75;1.75;;;;;23.88;47.47;101482.66;5035833;28;45630;-79
2023/07/10 08:38:38;;;;;;;;;1.00;1.00;;;;;23.93;47.05;101481.13;5034183;28;46010;-81
2023/07/10 08:41:17;;;;;;;;;1.75;1.00;;;;;23.95;47.21;101471.09;5035981;28;45629;-79
2023/07/10 08:43:43;;;;;;;;;2.75;1.75;;;;;24.02;47.51;101479.25;5035486;28;45617;-79
2023/07/10 08:46:19;;;;;;;;;2.00;1.00;;;;;24.06;46.61;101483.25;5035719;28;46649;-79
2023/07/10 08:48:56;;;;;;;;;2.25;2.00;;;;;24.06;46.45;101481.41;5035478;28;45699;-80
2023/07/10 08:51:27;;;;;;;;;0.25;0.00;;;;;24.05;45.49;101477.06;5035848;28;45654;-81
2023/07/10 08:54:04;;;;;;;;;1.00;1.00;;;;;24.05;44.55;101481.56;5035510;28;45645;-80
2023/07/10 08:56:36;;;;;;;;;2.50;1.00;;;;;24.06;45.20;101477.88;5035378;28;46212;-79
2023/07/10 08:59:25;;;;;;;;;2.25;1.00;;;;;24.05;45.16;101479.72;5035487;28;45607;-79
2023/07/10 09:01:51;;;;;;;;;2.00;1.00;;;;;24.07;44.88;101482.25;5035565;28;45662;-79
2023/07/10 09:04:20;;;;;;;;;1.75;1.00;;;;;24.09;44.71;101482.88;5035141;28;46209;-80
2023/07/10 09:06:49;;;;;;;;;2.00;0.75;;;;;24.11;44.52;101476.34;5035181;28;46011;-80
2023/07/10 09:09:36;;;;;;;;;1.00;1.00;;;;;24.15;44.53;101474.97;5035000;28;45650;-80
2023/07/10 09:12:19;;;;;;;;;2.25;1.00;;;;;24.19;44.80;101473.66;5035131;28;45753;-80
2023/07/10 09:15:00;;;;;;;;;2.25;2.00;;;;;24.24;44.68;101475.78;5035267;28;45674;-81
2023/07/10 09:17:40;;;;;;;;;3.75;2.00;;;;;24.30;45.17;101475.09;5035221;28;46075;-78
2023/07/10 09:20:10;;;;;;;;;2.00;2.00;;;;;24.32;44.32;101475.75;5035225;28;45655;-80
2023/07/10 09:22:37;;;;;;;;;2.75;1.75;;;;;24.37;44.34;101472.53;5035073;28;45757;-80
2023/07/10 09:25:13;;;;;;;;;1.50;1.50;;;;;24.41;44.14;101476.53;5034967;28;46555;-80
2023/07/10 09:27:42;;;;;;;;;2.00;2.00;;;;;24.42;44.06;101470.16;5034773;28;45997;-78
2023/07/10 09:30:46;;;;;;;;;3.00;1.00;;;;;24.53;44.52;101478.63;5034915;28;45693;-80
2023/07/10 09:33:12;;;;;;;;;1.25;0.75;;;;;24.57;43.61;101479.91;5035090;28;45515;-79
2023/07/10 09:35:41;;;;;;;;;1.00;1.00;;;;;24.60;43.02;101474.22;5034675;28;45704;-82
2023/07/10 09:38:11;;;;;;;;;1.00;0.25;;;;;24.64;42.43;101466.66;5033151;28;47134;-79
2023/07/10 09:40:43;;;;;;;;;1.00;1.00;;;;;24.70;42.38;101467.78;5034900;28;45718;-81
2023/07/10 09:43:18;;;;;;;;;1.50;1.00;;;;;24.72;42.60;101469.28;5035367;28;45571;-81
2023/07/10 09:45:47;;;;;;;;;1.25;1.00;;;;;24.77;42.33;101471.41;5034612;28;45740;-81
2023/07/10 09:48:18;;;;;;;;;1.50;1.00;;;;;24.81;42.22;101470.88;5034662;28;46038;-78
2023/07/10 09:50:49;;;;;;;;;1.75;1.50;;;;;24.84;42.84;101467.81;5034629;28;45588;-81
2023/07/10 09:53:47;;;;;;;;;2.00;1.00;;;;;24.88;42.69;101465.66;5034631;28;45597;-80
2023/07/10 09:56:39;;;;;;;;;1.25;1.00;;;;;24.92;42.77;101461.59;4992358;28;45666;-78
2023/07/10 09:59:30;;;;;;;;;2.00;2.00;;;;;24.95;42.15;101467.41;4989612;28;46266;-80
2023/07/10 10:01:56;;;;;;;;;2.00;1.50;;;;;24.99;41.79;101467.91;4992626;28;45770;-80
2023/07/10 10:07:47;;;;;;;;;1.75;1.00;;;;;25.09;41.70;101473.81;4992100;28;45930;-80
2023/07/10 10:10:26;;;;;;;;;2.75;1.25;;;;;25.14;41.55;101467.91;4992457;28;46334;-81
2023/07/10 10:13:10;;;;;;;;;1.00;1.00;;;;;25.18;41.33;101458.47;4992537;28;45755;-80
2023/07/10 10:16:03;;;;;;;;;1.00;1.00;;;;;25.23;41.52;101469.50;4992297;28;45789;-81
2023/07/10 10:18:56;;;;;;;;;1.25;1.00;;;;;25.27;41.01;101468.09;4991983;28;46440;-80
2023/07/10 10:24:45;;;;;;;;;1.00;1.00;;;;;25.34;40.81;101463.66;4991195;28;45620;-79
2023/07/10 10:27:25;;;;;;;;;0.00;0.00;;;;;25.39;40.79;101464.78;4992184;28;45738;-80
2023/07/10 10:30:19;;;;;;;;;0.75;0.75;;;;;25.41;40.05;101467.28;4992200;28;46340;-81
2023/07/10 10:32:57;;;;;;;;;1.00;0.00;;;;;25.42;39.84;101459.06;5015416;28;46404;-79
2023/07/10 10:35:44;;;;;;;;;1.00;1.00;;;;;25.45;39.94;101469.41;5033956;28;45626;-80
2023/07/10 10:38:18;;;;;;;;;0.25;0.25;;;;;25.46;39.58;101459.50;5033956;28;45607;-80
2023/07/10 10:41:02;;;;;;;;;2.00;1.25;;;;;25.49;39.98;101464.50;5033876;28;45541;-82
2023/07/10 10:43:33;;;;;;;;;1.50;0.75;;;;;25.53;39.65;101455.09;5034149;28;45930;-79
2023/07/10 10:46:17;;;;;;;;;1.00;1.00;;;;;25.59;39.65;101448.97;5034109;28;45669;-80
2023/07/10 10:49:04;;;;;;;;;1.00;1.00;;;;;25.66;39.25;101454.44;5034298;28;45540;-78
2023/07/10 10:51:46;;;;;;;;;2.75;1.00;;;;;25.70;39.43;101451.19;5034018;28;45507;-79
2023/07/10 10:54:47;;;;;;;;;1.00;1.00;;;;;25.76;39.29;101454.97;5034096;28;45654;-78
2023/07/10 10:57:27;;;;;;;;;1.00;1.00;;;;;25.80;40.02;101446.34;5046697;28;45540;-81
2023/07/10 10:59:52;;;;;;;;;0.75;0.25;;;;;25.86;39.65;101442.91;5034296;28;45488;-81
2023/07/10 11:02:51;;;;;;;;;1.00;1.00;;;;;25.89;39.32;101444.41;5031873;28;47344;-79
2023/07/10 11:08:45;;;;;;;;;1.00;1.00;;;;;25.99;38.97;101444.09;5035015;28;45530;-80
2023/07/10 11:11:26;;;;;;;;;1.50;1.00;;;;;26.05;38.55;101443.34;5035008;28;45623;-80
2023/07/10 11:13:53;;;;;;;;;2.75;1.75;;;;;26.09;38.11;101434.72;5034503;28;46598;-82
2023/07/10 11:16:18;;;;;;;;;2.00;2.00;;;;;26.14;38.64;101434.13;5034181;28;45673;-80
2023/07/10 11:18:45;;;;;;;;;1.75;1.75;;;;;26.19;38.53;101435.22;5033508;28;45523;-78
2023/07/10 11:24:34;;;;;;;;;2.25;1.00;;;;;26.28;37.85;101428.75;5033383;28;46158;-79
2023/07/10 11:27:34;;;;;;;;;2.00;1.00;;;;;26.31;38.19;101425.69;5033390;28;45791;-79
2023/07/10 11:30:07;;;;;;;;;1.00;1.00;;;;;26.36;37.51;101430.47;5048999;28;45787;-80
2023/07/10 11:32:53;;;;;;;;;1.00;1.00;;;;;26.39;37.16;101419.34;5033691;28;45812;-80
2023/07/10 11:35:20;;;;;;;;;2.00;1.00;;;;;26.44;37.15;101405.34;5034290;28;46607;-81
2023/07/10 11:37:49;;;;;;;;;0.50;0.50;;;;;26.47;36.87;101411.16;5051805;28;46639;-80
2023/07/10 11:40:23;;;;;;;;;1.00;1.00;;;;;26.50;36.38;101404.56;5036704;28;45691;-80
2023/07/10 11:42:48;;;;;;;;;1.00;1.00;;;;;26.50;36.59;101399.19;5036903;28;45825;-80
2023/07/10 11:45:14;;;;;;;;;1.00;1.00;;;;;26.57;35.86;101389.31;5034696;28;47084;-78
2023/07/10 11:47:45;;;;;;;;;2.00;1.00;;;;;26.62;35.97;101387.69;5036261;28;45641;-80
2023/07/10 11:50:15;;;;;;;;;1.00;0.00;;;;;26.68;36.02;101400.38;5034810;28;45774;-80
2023/07/10 11:52:41;;;;;;;;;1.75;1.75;;;;;26.68;35.69;101380.72;5036649;28;45508;-78
2023/07/10 11:55:11;;;;;;;;;1.50;1.00;;;;;26.77;35.79;101387.63;5036729;28;45614;-81
2023/07/10 11:57:37;;;;;;;;;1.00;1.00;;;;;26.86;35.08;101390.97;5036605;28;46262;-81
2023/07/10 12:00:14;;;;;;;;;0.50;0.50;;;;;26.89;35.81;101380.69;5036496;28;45676;-80
2023/07/10 12:02:44;;;;;;;;;0.75;0.00;;;;;27.00;36.02;101379.31;5036196;28;45655;-81
2023/07/10 12:05:15;;;;;;;;;0.50;0.00;;;;;27.05;35.12;101380.38;5036395;28;45684;-80
2023/07/10 12:08:09;;;;;;;;;1.00;1.00;;;;;27.10;35.81;101388.69;5036037;28;45778;-82
2023/07/10 12:10:49;;;;;;;;;0.00;0.00;;;;;27.12;34.71;101389.31;5036451;28;45598;-80
2023/07/10 12:13:23;;;;;;;;;1.00;1.00;;;;;27.12;34.09;101373.19;5036442;28;45524;-79
2023/07/10 12:15:51;;;;;;;;;1.00;0.50;;;;;27.16;34.46;101376.28;5034536;28;46486;-79
2023/07/10 12:18:23;;;;;;;;;1.25;0.75;;;;;27.19;34.86;101392.06;5035862;28;45833;-81
2023/07/10 12:20:51;;;;;;;;;1.25;1.00;;;;;27.26;34.87;101384.03;5036082;28;45446;-82
2023/07/10 12:23:16;;;;;;;;;1.00;0.00;;;;;27.32;34.80;101383.22;5036636;28;45674;-81
2023/07/10 12:25:51;;;;;;;;;1.00;1.00;;;;;27.37;34.71;101378.09;5036496;28;46463;-79
2023/07/10 12:28:19;;;;;;;;;0.75;0.00;;;;;27.41;34.49;101372.09;5036048;28;45990;-80
2023/07/10 12:30:50;;;;;;;;;1.75;0.50;;;;;27.48;34.67;101372.94;5036190;28;45611;-80
2023/07/10 12:33:39;;;;;;;;;1.00;1.00;;;;;27.54;34.37;101372.16;5037015;28;45515;-81
2023/07/10 12:36:17;;;;;;;;;1.00;1.00;;;;;27.60;34.18;101372.38;5036207;28;45677;-80
2023/07/10 12:38:44;;;;;;;;;0.25;0.25;;;;;27.65;34.14;101367.22;5035922;28;45923;-78
2023/07/10 12:41:09;;;;;;;;;1.00;1.00;;;;;27.66;33.60;101371.59;5036022;28;45566;-79
2023/07/10 12:43:35;;;;;;;;;3.75;3.75;;;;;27.71;33.77;101369.94;5035831;28;45527;-80